Time;durP1;ratioP1;P1;durP2;ratioP2;P2;SDS_P1;SDS_P2;PMS_P1;PMS_P2;Temp;Humidity;BMP_temperature;BMP_pressure;BME280_temperature;BME280_humidity;BME280_pressure;Samples;Min_cycle;Max_cycle;Signal;HPM_P1;HPM_P2
2023/10/29 00:01:05;;;;;;;0.20;0.20;;;13.80;99.90;;;;;;4990705;28;20103;-79
2023/10/29 00:03:30;;;;;;;0.20;0.20;;;13.90;99.90;;;;;;4993473;28;20028;-78
2023/10/29 00:05:56;;;;;;;0.40;0.40;;;13.90;99.90;;;;;;4994983;28;20029;-79
2023/10/29 00:08:22;;;;;;;0.20;0.20;;;13.90;99.90;;;;;;4992342;28;20022;-78
2023/10/29 00:10:47;;;;;;;0.30;0.22;;;13.90;99.90;;;;;;4991192;28;20308;-78
2023/10/29 00:13:15;;;;;;;0.20;0.20;;;14.00;99.90;;;;;;4991844;28;20026;-79
2023/10/29 00:15:41;;;;;;;0.20;0.20;;;13.90;99.90;;;;;;4992429;28;20109;-78
2023/10/29 00:18:12;;;;;;;0.20;0.20;;;14.00;99.90;;;;;;5006866;28;20113;-78
2023/10/29 00:20:38;;;;;;;0.25;0.25;;;14.00;99.90;;;;;;4993255;28;20478;-78
2023/10/29 00:23:04;;;;;;;0.13;0.13;;;14.00;99.90;;;;;;4994234;28;20550;-78
2023/10/29 00:25:30;;;;;;;0.20;0.20;;;14.00;99.90;;;;;;4993854;28;20692;-78
2023/10/29 00:27:55;;;;;;;0.20;0.20;;;14.10;99.90;;;;;;4993607;28;20022;-78
2023/10/29 00:30:21;;;;;;;0.20;0.20;;;14.10;99.90;;;;;;4994460;28;20254;-78
2023/10/29 00:32:46;;;;;;;0.20;0.20;;;14.20;99.90;;;;;;4992059;28;20026;-78
2023/10/29 00:35:13;;;;;;;0.20;0.20;;;14.10;99.90;;;;;;4997943;28;20022;-78
2023/10/29 00:37:38;;;;;;;0.20;0.20;;;14.20;99.90;;;;;;4991750;28;20116;-78
2023/10/29 00:40:04;;;;;;;0.40;0.40;;;14.20;99.90;;;;;;4993500;28;20127;-79
2023/10/29 00:42:30;;;;;;;0.20;0.20;;;14.30;99.90;;;;;;4997013;28;20042;-78
2023/10/29 00:44:56;;;;;;;0.10;0.10;;;14.30;99.90;;;;;;4990148;28;20022;-78
2023/10/29 00:47:22;;;;;;;0.25;0.25;;;14.30;99.90;;;;;;4988315;28;20026;-78
2023/10/29 00:49:48;;;;;;;0.20;0.20;;;14.30;99.90;;;;;;4992735;28;20490;-79
2023/10/29 00:52:14;;;;;;;0.30;0.30;;;14.30;99.90;;;;;;4995252;28;20044;-80
2023/10/29 00:54:39;;;;;;;0.10;0.10;;;14.40;99.90;;;;;;4991055;28;20022;-78
2023/10/29 00:57:08;;;;;;;0.10;0.10;;;14.40;99.90;;;;;;4993277;28;20541;-78
2023/10/29 00:59:34;;;;;;;0.20;0.20;;;14.40;99.90;;;;;;4991839;28;20093;-78
2023/10/29 01:02:01;;;;;;;0.30;0.30;;;14.40;99.90;;;;;;4992485;28;20577;-79
2023/10/29 01:04:27;;;;;;;0.20;0.20;;;14.50;99.90;;;;;;4992261;28;20034;-78
2023/10/29 01:06:52;;;;;;;0.20;0.20;;;14.50;99.90;;;;;;4992931;28;20347;-78
2023/10/29 01:09:18;;;;;;;0.20;0.20;;;14.50;99.90;;;;;;4995497;28;20030;-78
2023/10/29 01:11:44;;;;;;;0.30;0.30;;;14.50;99.90;;;;;;4990718;28;20048;-78
2023/10/29 01:14:10;;;;;;;0.30;0.30;;;14.50;99.90;;;;;;4991427;28;20491;-78
2023/10/29 01:16:35;;;;;;;0.20;0.20;;;14.50;99.90;;;;;;4991242;28;20435;-78
2023/10/29 01:19:01;;;;;;;0.10;0.10;;;14.50;99.90;;;;;;5006562;28;20018;-79
2023/10/29 01:21:29;;;;;;;0.20;0.20;;;14.50;99.90;;;;;;5003111;28;20049;-79
2023/10/29 01:23:55;;;;;;;0.40;0.40;;;14.60;99.90;;;;;;4990193;28;20014;-79
2023/10/29 01:26:21;;;;;;;0.20;0.20;;;14.50;99.90;;;;;;4994508;28;20033;-79
2023/10/29 01:28:46;;;;;;;0.20;0.20;;;14.60;99.90;;;;;;4991594;28;20026;-78
2023/10/29 01:31:12;;;;;;;0.10;0.10;;;14.60;99.90;;;;;;4994323;28;20065;-79
2023/10/29 01:33:38;;;;;;;0.30;0.30;;;14.60;99.90;;;;;;4992433;28;20172;-78
2023/10/29 01:36:05;;;;;;;0.10;0.10;;;14.60;99.90;;;;;;4991774;28;20034;-79
2023/10/29 01:38:30;;;;;;;0.20;0.20;;;14.60;99.90;;;;;;4988670;28;20025;-79
2023/10/29 01:40:56;;;;;;;0.30;0.30;;;14.60;99.90;;;;;;4992781;28;20087;-78
2023/10/29 01:43:22;;;;;;;0.10;0.10;;;14.70;99.90;;;;;;4992102;28;20101;-79
2023/10/29 01:45:47;;;;;;;0.15;0.15;;;14.70;99.90;;;;;;4991274;28;20080;-79
2023/10/29 01:48:13;;;;;;;0.20;0.20;;;14.70;99.90;;;;;;4991332;28;20027;-81
2023/10/29 01:50:38;;;;;;;0.20;0.20;;;14.70;99.90;;;;;;4998693;28;20123;-81
2023/10/29 01:53:04;;;;;;;0.20;0.20;;;14.80;99.90;;;;;;4990387;28;20109;-79
2023/10/29 01:55:30;;;;;;;0.13;0.13;;;14.70;99.90;;;;;;4992705;28;20800;-79
2023/10/29 01:57:56;;;;;;;0.10;0.10;;;14.70;99.90;;;;;;4989320;28;20038;-79
2023/10/29 02:00:22;;;;;;;0.20;0.20;;;14.80;99.90;;;;;;4991173;28;20026;-79
2023/10/29 02:02:49;;;;;;;0.20;0.20;;;14.80;99.90;;;;;;4991849;28;20030;-79
2023/10/29 02:05:15;;;;;;;0.20;0.20;;;14.80;99.90;;;;;;4995044;28;20038;-79
2023/10/29 02:07:41;;;;;;;0.13;0.13;;;14.80;99.90;;;;;;5009426;28;20021;-79
2023/10/29 02:10:06;;;;;;;0.10;0.10;;;14.90;99.90;;;;;;4992938;28;20026;-79
2023/10/29 02:12:32;;;;;;;0.10;0.10;;;14.90;99.90;;;;;;4995722;28;20025;-79
2023/10/29 02:14:58;;;;;;;0.10;0.10;;;14.90;99.90;;;;;;4993721;28;20026;-78
2023/10/29 02:17:25;;;;;;;0.20;0.20;;;14.90;99.90;;;;;;4993064;28;20092;-78
2023/10/29 02:19:51;;;;;;;0.13;0.13;;;14.90;99.90;;;;;;4991661;28;20026;-78
2023/10/29 02:22:17;;;;;;;0.10;0.10;;;14.90;99.90;;;;;;5000741;28;20022;-79
2023/10/29 02:24:42;;;;;;;1.35;0.47;;;15.00;99.90;;;;;;4989345;28;20073;-79
2023/10/29 02:27:08;;;;;;;0.30;0.30;;;14.80;99.90;;;;;;4990032;28;20080;-79
2023/10/29 02:29:34;;;;;;;0.10;0.10;;;14.90;99.90;;;;;;4991006;28;20030;-79
2023/10/29 02:32:02;;;;;;;0.20;0.20;;;14.90;99.90;;;;;;5136035;23;20149;-79
2023/10/29 02:34:27;;;;;;;0.20;0.20;;;14.90;99.90;;;;;;4994563;28;20021;-78
2023/10/29 02:36:53;;;;;;;1.02;1.02;;;14.90;99.90;;;;;;4989966;28;20037;-78
2023/10/29 02:39:18;;;;;;;0.10;0.10;;;15.00;99.90;;;;;;4993510;28;20077;-79
2023/10/29 02:41:44;;;;;;;0.20;0.20;;;14.90;99.90;;;;;;4987106;28;20544;-81
2023/10/29 02:44:10;;;;;;;0.10;0.10;;;14.90;99.90;;;;;;5010043;28;20021;-79
2023/10/29 02:46:36;;;;;;;0.20;0.20;;;14.90;99.90;;;;;;4992492;28;20030;-78
2023/10/29 02:49:02;;;;;;;0.15;0.15;;;14.90;99.90;;;;;;5019949;28;20037;-79
2023/10/29 02:51:28;;;;;;;0.20;0.20;;;14.90;99.90;;;;;;4995938;28;20350;-78
2023/10/29 02:53:56;;;;;;;0.20;0.20;;;15.00;99.90;;;;;;4994056;28;20034;-80
2023/10/29 02:56:21;;;;;;;0.20;0.20;;;14.90;99.90;;;;;;4993413;28;20331;-84
2023/10/29 02:58:47;;;;;;;0.10;0.10;;;14.90;99.90;;;;;;4998293;28;20032;-83
2023/10/29 03:01:15;;;;;;;0.20;0.20;;;15.00;99.90;;;;;;4997436;28;20049;-83
2023/10/29 03:03:41;;;;;;;0.20;0.20;;;15.00;99.90;;;;;;4998324;28;20490;-86
2023/10/29 03:06:09;;;;;;;0.47;0.47;;;15.00;99.90;;;;;;5009128;28;20026;-83
2023/10/29 03:08:36;;;;;;;0.30;0.30;;;15.00;99.90;;;;;;5008519;28;20022;-85
2023/10/29 03:11:02;;;;;;;0.20;0.20;;;15.00;99.90;;;;;;4999554;28;20034;-84
2023/10/29 03:13:28;;;;;;;0.20;0.20;;;15.00;99.90;;;;;;4995631;28;20030;-84
2023/10/29 03:15:55;;;;;;;0.10;0.10;;;14.90;99.90;;;;;;4996762;28;20026;-82
2023/10/29 03:18:21;;;;;;;0.10;0.10;;;15.00;99.90;;;;;;4995213;28;20031;-85
2023/10/29 03:20:50;;;;;;;0.20;0.20;;;14.90;99.90;;;;;;4996993;28;20021;-85
2023/10/29 03:23:15;;;;;;;0.10;0.10;;;15.00;99.90;;;;;;4995391;28;20033;-84
2023/10/29 03:25:44;;;;;;;0.10;0.10;;;15.00;99.90;;;;;;4995028;28;20018;-83
2023/10/29 03:28:11;;;;;;;0.20;0.20;;;14.90;99.90;;;;;;5001964;28;20055;-84
2023/10/29 03:30:36;;;;;;;0.10;0.10;;;15.00;99.90;;;;;;4998070;28;20137;-83
2023/10/29 03:33:02;;;;;;;0.30;0.30;;;15.00;99.90;;;;;;5011803;28;20649;-85
2023/10/29 03:35:28;;;;;;;0.15;0.15;;;15.00;99.90;;;;;;4998288;28;20355;-83
2023/10/29 03:37:54;;;;;;;0.10;0.10;;;14.90;99.90;;;;;;5014974;28;20433;-83
2023/10/29 03:40:20;;;;;;;0.20;0.20;;;15.10;99.90;;;;;;4998799;28;20636;-83
2023/10/29 03:42:46;;;;;;;0.20;0.20;;;15.10;99.90;;;;;;4997136;28;20493;-84
2023/10/29 03:45:11;;;;;;;0.10;0.10;;;15.20;99.90;;;;;;4995949;28;20032;-83
2023/10/29 03:47:37;;;;;;;0.15;0.15;;;15.20;99.90;;;;;;4996154;28;20018;-82
2023/10/29 03:50:03;;;;;;;0.30;0.30;;;15.10;99.90;;;;;;4997359;28;20034;-83
2023/10/29 03:52:28;;;;;;;0.20;0.20;;;15.10;99.90;;;;;;4995511;28;20088;-83
2023/10/29 03:54:54;;;;;;;0.20;0.20;;;15.20;99.90;;;;;;5004638;28;20022;-83
2023/10/29 03:57:20;;;;;;;0.20;0.20;;;15.30;99.90;;;;;;5003435;28;20154;-82
2023/10/29 03:59:48;;;;;;;0.30;0.30;;;15.30;99.90;;;;;;5012573;28;20033;-82
2023/10/29 04:02:16;;;;;;;0.20;0.20;;;15.30;99.90;;;;;;4996359;28;20030;-83
2023/10/29 04:04:41;;;;;;;0.20;0.20;;;15.30;99.90;;;;;;4995619;28;20839;-84
2023/10/29 04:07:07;;;;;;;0.20;0.20;;;15.20;99.90;;;;;;4997800;28;20061;-83
2023/10/29 04:09:33;;;;;;;0.10;0.10;;;15.30;99.90;;;;;;4994659;28;20026;-84
2023/10/29 04:12:00;;;;;;;0.13;0.13;;;15.30;99.90;;;;;;4996344;28;20036;-83
2023/10/29 04:14:26;;;;;;;0.20;0.20;;;15.20;99.90;;;;;;4997788;28;20411;-83
2023/10/29 04:16:51;;;;;;;0.10;0.10;;;15.30;99.90;;;;;;4997567;28;20848;-81
2023/10/29 04:19:17;;;;;;;0.20;0.20;;;15.20;99.90;;;;;;4996851;28;20725;-84
2023/10/29 04:21:42;;;;;;;0.20;0.20;;;15.20;99.90;;;;;;4997218;28;20032;-83
2023/10/29 04:24:08;;;;;;;0.17;0.17;;;15.30;99.90;;;;;;4994562;28;20026;-84
2023/10/29 04:26:34;;;;;;;0.38;0.35;;;15.20;99.90;;;;;;4996442;28;20048;-83
2023/10/29 04:28:59;;;;;;;0.50;0.50;;;15.30;99.90;;;;;;5000058;28;20021;-84
2023/10/29 04:31:25;;;;;;;0.20;0.20;;;15.30;99.90;;;;;;4997560;28;21247;-84
2023/10/29 04:33:51;;;;;;;0.28;0.28;;;15.30;99.90;;;;;;5011228;28;20459;-84
2023/10/29 04:36:23;;;;;;;0.20;0.20;;;15.20;99.90;;;;;;4994508;28;20022;-85
2023/10/29 04:38:49;;;;;;;0.20;0.20;;;15.20;99.90;;;;;;4997033;28;20029;-85
2023/10/29 04:41:15;;;;;;;0.22;0.22;;;15.20;99.90;;;;;;5012513;28;20523;-84
2023/10/29 04:43:41;;;;;;;0.20;0.20;;;15.10;99.90;;;;;;4996460;28;20104;-83
2023/10/29 04:46:10;;;;;;;0.17;0.17;;;15.10;99.90;;;;;;4994493;28;20057;-82
2023/10/29 04:48:37;;;;;;;0.30;0.30;;;15.00;99.90;;;;;;4994372;28;20052;-83
2023/10/29 04:51:02;;;;;;;0.15;0.15;;;15.10;99.90;;;;;;4998976;28;20616;-83
2023/10/29 04:53:28;;;;;;;0.20;0.20;;;15.10;99.90;;;;;;4997721;28;20029;-84
2023/10/29 04:55:54;;;;;;;0.20;0.20;;;15.20;99.90;;;;;;4993522;28;20018;-83
2023/10/29 04:58:19;;;;;;;0.20;0.20;;;15.10;99.90;;;;;;4994003;28;20022;-83
2023/10/29 05:00:45;;;;;;;0.10;0.10;;;15.10;99.90;;;;;;4992981;28;20025;-84
2023/10/29 05:03:10;;;;;;;0.10;0.10;;;15.20;99.90;;;;;;4997145;28;20029;-84
2023/10/29 05:05:36;;;;;;;0.47;0.47;;;15.10;99.90;;;;;;4994926;28;20489;-83
2023/10/29 05:08:02;;;;;;;0.20;0.20;;;15.20;99.90;;;;;;4995942;28;20053;-84
2023/10/29 05:10:28;;;;;;;0.20;0.20;;;15.20;99.90;;;;;;4997729;28;20338;-83
2023/10/29 05:12:54;;;;;;;0.10;0.10;;;15.20;99.90;;;;;;4998023;28;20029;-83
2023/10/29 05:15:19;;;;;;;0.20;0.20;;;15.30;99.90;;;;;;5002272;28;20328;-84
2023/10/29 05:17:45;;;;;;;0.17;0.17;;;15.30;99.90;;;;;;5007570;28;20024;-84
2023/10/29 05:20:11;;;;;;;0.20;0.20;;;15.30;99.90;;;;;;4996900;28;20506;-84
2023/10/29 05:22:37;;;;;;;0.17;0.17;;;15.30;99.90;;;;;;4997764;28;20092;-85
2023/10/29 05:25:04;;;;;;;0.10;0.10;;;15.30;99.90;;;;;;5012536;28;20534;-85
2023/10/29 05:27:30;;;;;;;0.10;0.10;;;15.30;99.90;;;;;;4999109;28;20531;-84
2023/10/29 05:29:58;;;;;;;0.10;0.10;;;15.40;99.90;;;;;;5000489;28;20022;-84
2023/10/29 05:32:26;;;;;;;0.10;0.10;;;15.40;99.90;;;;;;4998466;28;20117;-84
2023/10/29 05:34:52;;;;;;;0.20;0.20;;;15.40;99.90;;;;;;4998832;28;20237;-83
2023/10/29 05:37:17;;;;;;;0.17;0.17;;;15.30;99.90;;;;;;4994775;28;20390;-83
2023/10/29 05:39:43;;;;;;;0.35;0.35;;;15.40;99.90;;;;;;4995977;28;20496;-84
2023/10/29 05:42:09;;;;;;;1.38;0.20;;;15.50;99.90;;;;;;4995217;28;20524;-83
2023/10/29 05:44:35;;;;;;;0.20;0.20;;;15.40;99.90;;;;;;4998062;28;20101;-83
2023/10/29 05:47:01;;;;;;;0.10;0.10;;;15.40;99.90;;;;;;4994450;28;20116;-85
2023/10/29 05:49:26;;;;;;;0.10;0.10;;;15.50;99.90;;;;;;4998263;28;20026;-83
2023/10/29 05:51:52;;;;;;;0.10;0.10;;;15.50;99.90;;;;;;4993416;28;20398;-83
2023/10/29 05:54:18;;;;;;;0.10;0.10;;;15.50;99.90;;;;;;4993548;28;20354;-84
2023/10/29 05:56:45;;;;;;;0.10;0.10;;;15.50;99.90;;;;;;4997172;28;20073;-84
2023/10/29 05:59:11;;;;;;;0.10;0.10;;;15.60;99.90;;;;;;4999212;28;20024;-84
2023/10/29 06:01:38;;;;;;;0.20;0.20;;;15.60;99.90;;;;;;4996974;28;20117;-83
2023/10/29 06:04:05;;;;;;;0.20;0.20;;;15.60;99.90;;;;;;4991277;28;20030;-85
2023/10/29 06:06:31;;;;;;;0.20;0.20;;;15.70;99.90;;;;;;4996781;28;20321;-84
2023/10/29 06:08:56;;;;;;;0.20;0.20;;;15.60;99.90;;;;;;4994353;28;20029;-83
2023/10/29 06:11:22;;;;;;;0.40;0.40;;;15.60;99.90;;;;;;5008795;28;20096;-84
2023/10/29 06:13:47;;;;;;;0.30;0.30;;;15.60;99.90;;;;;;4993240;28;20557;-84
2023/10/29 06:16:16;;;;;;;0.20;0.20;;;15.60;99.90;;;;;;4997499;28;20030;-83
2023/10/29 06:18:41;;;;;;;1.88;0.25;;;15.60;99.90;;;;;;5001169;28;20117;-84
2023/10/29 06:21:07;;;;;;;0.20;0.20;;;15.60;99.90;;;;;;4998032;28;20562;-84
2023/10/29 06:23:33;;;;;;;1.25;1.15;;;15.60;99.90;;;;;;4996247;28;20026;-85
2023/10/29 06:25:58;;;;;;;0.20;0.20;;;15.60;99.90;;;;;;5010307;28;20028;-85
2023/10/29 06:28:24;;;;;;;0.20;0.20;;;15.60;99.90;;;;;;4995567;28;20023;-84
2023/10/29 06:30:50;;;;;;;0.10;0.10;;;15.50;99.90;;;;;;5017699;28;20041;-84
2023/10/29 06:33:15;;;;;;;0.10;0.10;;;15.60;99.90;;;;;;5014726;28;20026;-84
2023/10/29 06:35:41;;;;;;;0.20;0.20;;;15.60;99.90;;;;;;5018416;28;20033;-82
2023/10/29 06:38:07;;;;;;;0.20;0.20;;;15.60;99.90;;;;;;5003882;28;20500;-84
2023/10/29 06:40:32;;;;;;;0.10;0.10;;;15.60;99.90;;;;;;4995874;28;20083;-85
2023/10/29 06:42:58;;;;;;;0.13;0.13;;;15.60;99.90;;;;;;4999394;28;20029;-82
2023/10/29 06:45:24;;;;;;;0.10;0.10;;;15.50;99.90;;;;;;4996362;28;20413;-85
2023/10/29 06:47:49;;;;;;;0.20;0.20;;;15.40;99.90;;;;;;4996843;28;20022;-84
2023/10/29 06:50:15;;;;;;;0.20;0.20;;;15.50;99.90;;;;;;4998677;28;20444;-86
2023/10/29 06:52:41;;;;;;;0.10;0.10;;;15.40;99.90;;;;;;4994770;28;20034;-83
2023/10/29 06:55:08;;;;;;;0.45;0.45;;;15.40;99.90;;;;;;4995332;28;20030;-84
2023/10/29 06:57:35;;;;;;;0.15;0.15;;;15.30;99.90;;;;;;4997880;28;20022;-85
2023/10/29 07:00:01;;;;;;;0.20;0.20;;;15.40;99.90;;;;;;4998462;28;20021;-84
2023/10/29 07:02:29;;;;;;;0.10;0.10;;;15.40;99.90;;;;;;4994544;28;20326;-83
2023/10/29 07:04:54;;;;;;;0.20;0.20;;;15.40;99.90;;;;;;4991663;28;20029;-83
2023/10/29 07:07:21;;;;;;;0.20;0.20;;;15.30;99.90;;;;;;4995315;28;20021;-85
2023/10/29 07:09:49;;;;;;;0.20;0.20;;;15.30;99.90;;;;;;5012847;28;20069;-85
2023/10/29 07:12:18;;;;;;;0.20;0.20;;;15.30;99.90;;;;;;5001089;28;20623;-84
2023/10/29 07:14:44;;;;;;;0.10;0.10;;;15.40;99.90;;;;;;4995849;28;20026;-85
2023/10/29 07:17:10;;;;;;;0.20;0.20;;;15.40;99.90;;;;;;4998343;28;20101;-84
2023/10/29 07:19:35;;;;;;;0.20;0.20;;;15.40;99.90;;;;;;4999786;28;20489;-85
2023/10/29 07:22:01;;;;;;;0.20;0.20;;;15.30;99.90;;;;;;4995684;28;20089;-85
2023/10/29 07:24:26;;;;;;;0.10;0.10;;;15.30;99.90;;;;;;5001795;28;20018;-86
2023/10/29 07:26:54;;;;;;;0.10;0.10;;;15.20;99.90;;;;;;4999281;28;20037;-85
2023/10/29 07:29:20;;;;;;;0.20;0.20;;;15.20;99.90;;;;;;4994633;28;20026;-85
2023/10/29 07:31:47;;;;;;;0.22;0.22;;;15.30;99.90;;;;;;5006968;28;20037;-85
2023/10/29 07:34:13;;;;;;;0.20;0.20;;;15.30;99.90;;;;;;5000404;28;20088;-85
2023/10/29 07:36:39;;;;;;;0.17;0.17;;;15.30;99.90;;;;;;5006461;28;20064;-86
2023/10/29 07:39:04;;;;;;;0.10;0.10;;;15.30;99.90;;;;;;5001704;28;20147;-84
2023/10/29 07:41:30;;;;;;;0.20;0.20;;;15.30;99.90;;;;;;5006874;28;20089;-83
2023/10/29 07:43:56;;;;;;;0.20;0.20;;;15.40;99.90;;;;;;5002455;28;20475;-85
2023/10/29 07:46:21;;;;;;;0.15;0.15;;;15.40;99.90;;;;;;5004422;28;20097;-85
2023/10/29 07:48:47;;;;;;;0.20;0.20;;;15.40;99.90;;;;;;5018016;28;20125;-86
2023/10/29 07:51:13;;;;;;;0.20;0.20;;;15.50;99.90;;;;;;5003701;28;20062;-82
2023/10/29 07:53:39;;;;;;;0.15;0.15;;;15.50;99.90;;;;;;5007016;28;20030;-86
2023/10/29 07:56:09;;;;;;;0.20;0.20;;;15.60;99.90;;;;;;5003309;28;20026;-84
2023/10/29 07:58:36;;;;;;;0.20;0.20;;;15.60;99.90;;;;;;5001748;28;20038;-85
2023/10/29 08:01:02;;;;;;;0.15;0.15;;;15.60;99.90;;;;;;5001555;28;20370;-84
2023/10/29 08:03:28;;;;;;;0.50;0.50;;;15.70;99.90;;;;;;5005141;28;20109;-85
2023/10/29 08:05:54;;;;;;;0.22;0.22;;;15.80;99.90;;;;;;5002449;28;20026;-86
2023/10/29 08:08:19;;;;;;;0.28;0.25;;;15.70;99.90;;;;;;5008749;28;20026;-85
2023/10/29 08:10:45;;;;;;;0.20;0.20;;;15.70;99.90;;;;;;5004905;28;20434;-85
2023/10/29 08:13:13;;;;;;;0.20;0.20;;;15.70;99.90;;;;;;5004755;28;20025;-85
2023/10/29 08:15:41;;;;;;;0.20;0.20;;;15.70;99.90;;;;;;5021332;28;20109;-84
2023/10/29 08:18:06;;;;;;;0.20;0.20;;;15.70;99.90;;;;;;4997043;28;20022;-84
2023/10/29 08:20:32;;;;;;;0.20;0.20;;;15.70;99.90;;;;;;4994881;28;20455;-84
2023/10/29 08:22:57;;;;;;;0.20;0.20;;;15.60;99.90;;;;;;4999151;28;20029;-84
2023/10/29 08:25:26;;;;;;;0.20;0.20;;;15.70;99.90;;;;;;4993556;28;20030;-84
2023/10/29 08:27:51;;;;;;;0.20;0.20;;;15.80;99.90;;;;;;4999733;28;20538;-86
2023/10/29 08:30:17;;;;;;;0.20;0.20;;;15.80;99.90;;;;;;4997663;28;20037;-82
2023/10/29 08:32:43;;;;;;;0.35;0.35;;;15.80;99.90;;;;;;4997781;28;20489;-84
2023/10/29 08:35:09;;;;;;;0.10;0.10;;;15.70;99.90;;;;;;5013039;28;20566;-84
2023/10/29 08:37:35;;;;;;;0.20;0.20;;;15.80;99.90;;;;;;5012605;28;20010;-83
2023/10/29 08:40:01;;;;;;;0.43;0.43;;;15.90;99.90;;;;;;4997194;28;20493;-84
2023/10/29 08:42:31;;;;;;;0.20;0.20;;;16.00;99.90;;;;;;5000641;28;20470;-84
2023/10/29 08:44:57;;;;;;;0.43;0.30;;;16.00;99.90;;;;;;5000500;28;20104;-86
2023/10/29 08:47:23;;;;;;;0.40;0.40;;;16.00;99.90;;;;;;4993985;28;20116;-85
2023/10/29 08:49:50;;;;;;;0.20;0.20;;;16.10;99.90;;;;;;4993515;28;20102;-84
2023/10/29 08:52:17;;;;;;;0.40;0.40;;;16.00;99.90;;;;;;4999217;28;20034;-83
2023/10/29 08:54:43;;;;;;;0.20;0.20;;;16.00;99.90;;;;;;4997919;28;20136;-83
2023/10/29 08:57:09;;;;;;;0.30;0.30;;;16.10;99.90;;;;;;4993292;28;20041;-82
2023/10/29 08:59:37;;;;;;;0.20;0.20;;;16.10;99.90;;;;;;4993993;28;20034;-83
2023/10/29 09:02:03;;;;;;;0.22;0.22;;;16.20;99.90;;;;;;4993240;28;20042;-84
2023/10/29 09:04:29;;;;;;;0.20;0.20;;;16.30;99.90;;;;;;4996942;28;20018;-82
2023/10/29 09:06:57;;;;;;;2.10;1.27;;;16.50;99.90;;;;;;5000096;28;20050;-83
2023/10/29 09:09:22;;;;;;;0.20;0.20;;;16.50;99.90;;;;;;4989885;28;20017;-83
2023/10/29 09:11:53;;;;;;;0.30;0.30;;;16.40;99.90;;;;;;4989990;28;20090;-83
2023/10/29 09:14:18;;;;;;;0.30;0.30;;;16.40;99.90;;;;;;5009247;28;20041;-84
2023/10/29 09:16:47;;;;;;;0.10;0.10;;;16.40;99.90;;;;;;4996319;28;20030;-83
2023/10/29 09:19:13;;;;;;;0.20;0.20;;;16.40;99.90;;;;;;4999464;28;20033;-83
2023/10/29 09:21:47;;;;;;;0.20;0.20;;;16.30;99.90;;;;;;4997963;28;20036;-84
2023/10/29 09:24:13;;;;;;;0.35;0.35;;;16.20;99.90;;;;;;5011955;28;20087;-84
2023/10/29 09:26:40;;;;;;;0.30;0.30;;;16.20;99.90;;;;;;4997800;28;20108;-84
2023/10/29 09:29:05;;;;;;;0.20;0.20;;;16.20;99.90;;;;;;4999661;28;20201;-83
2023/10/29 09:31:31;;;;;;;0.30;0.30;;;16.20;99.90;;;;;;4990837;28;20037;-82
2023/10/29 09:33:57;;;;;;;0.20;0.20;;;16.40;99.90;;;;;;4996581;28;20399;-84
2023/10/29 09:36:22;;;;;;;0.30;0.30;;;16.30;99.90;;;;;;5012728;28;20029;-84
2023/10/29 09:38:48;;;;;;;0.20;0.20;;;16.30;99.90;;;;;;4996434;28;20482;-84
2023/10/29 09:41:18;;;;;;;0.35;0.35;;;16.40;99.90;;;;;;4995836;28;20760;-84
2023/10/29 09:43:44;;;;;;;0.20;0.20;;;16.50;99.90;;;;;;5011976;28;20807;-83
2023/10/29 09:46:11;;;;;;;2.55;1.00;;;16.50;99.90;;;;;;4995146;28;20073;-85
2023/10/29 09:48:37;;;;;;;0.20;0.20;;;16.50;99.90;;;;;;4994893;28;20033;-84
2023/10/29 09:51:05;;;;;;;0.20;0.20;;;16.40;99.90;;;;;;4997838;28;20449;-84
2023/10/29 09:53:35;;;;;;;0.20;0.20;;;16.30;99.90;;;;;;4993835;28;20030;-87
2023/10/29 09:56:02;;;;;;;0.20;0.20;;;16.20;99.90;;;;;;4997960;28;20084;-81
2023/10/29 09:58:27;;;;;;;0.20;0.20;;;16.10;99.90;;;;;;4995298;28;20026;-84
2023/10/29 10:00:54;;;;;;;1.40;1.30;;;16.10;99.90;;;;;;4993561;28;20096;-84
2023/10/29 10:03:20;;;;;;;0.20;0.20;;;16.10;99.90;;;;;;4995010;28;20486;-82
2023/10/29 10:05:46;;;;;;;0.20;0.20;;;16.00;99.90;;;;;;5013582;28;20025;-82
2023/10/29 10:08:12;;;;;;;0.20;0.20;;;15.90;99.90;;;;;;4996336;28;20030;-84
2023/10/29 10:10:46;;;;;;;0.20;0.20;;;16.00;99.90;;;;;;4998409;28;20100;-83
2023/10/29 10:13:15;;;;;;;0.20;0.20;;;16.20;99.90;;;;;;5003990;28;20027;-87
2023/10/29 10:15:42;;;;;;;0.20;0.20;;;16.20;99.90;;;;;;5011441;28;20027;-84
2023/10/29 10:18:08;;;;;;;0.20;0.20;;;16.30;99.90;;;;;;5015166;28;20046;-86
2023/10/29 10:20:34;;;;;;;0.13;0.13;;;16.70;99.90;;;;;;5018041;28;20021;-79
2023/10/29 10:23:04;;;;;;;0.30;0.30;;;16.90;99.90;;;;;;5028570;28;20026;-80
2023/10/29 10:25:31;;;;;;;0.30;0.30;;;17.20;99.90;;;;;;4990441;28;20573;-83
2023/10/29 10:28:00;;;;;;;0.30;0.30;;;17.40;99.90;;;;;;4992968;28;20053;-83
2023/10/29 10:30:32;;;;;;;0.20;0.20;;;17.30;99.90;;;;;;4993531;28;20031;-84
2023/10/29 10:33:10;;;;;;;0.30;0.30;;;17.10;99.90;;;;;;4994067;28;20049;-82
2023/10/29 10:35:41;;;;;;;0.22;0.22;;;17.20;99.90;;;;;;4993272;28;20041;-81
2023/10/29 10:38:06;;;;;;;0.20;0.20;;;17.20;99.90;;;;;;4992850;28;20030;-81
2023/10/29 10:40:32;;;;;;;0.20;0.20;;;17.20;99.90;;;;;;4994396;28;20076;-80
2023/10/29 10:42:58;;;;;;;0.30;0.30;;;17.20;99.90;;;;;;4995710;28;20719;-82
2023/10/29 10:45:28;;;;;;;0.20;0.20;;;17.10;99.90;;;;;;4992112;28;20064;-87
2023/10/29 10:48:00;;;;;;;3.63;1.95;;;17.40;99.90;;;;;;5009368;28;20557;-83
2023/10/29 10:50:27;;;;;;;2.97;2.88;;;17.40;99.90;;;;;;4995183;28;20032;-78
2023/10/29 10:53:20;;;;;;;0.40;0.40;;;17.30;99.90;;;;;;5008451;28;20033;-86
2023/10/29 10:55:47;;;;;;;0.20;0.20;;;17.10;99.90;;;;;;5002427;28;20906;-83
2023/10/29 10:58:16;;;;;;;0.20;0.20;;;17.00;99.90;;;;;;4990971;28;20040;-82
2023/10/29 11:00:42;;;;;;;0.30;0.30;;;16.70;99.90;;;;;;4989701;28;20018;-83
2023/10/29 11:03:09;;;;;;;0.30;0.30;;;16.70;99.90;;;;;;4989940;28;20030;-85
2023/10/29 11:05:36;;;;;;;0.20;0.20;;;16.70;99.90;;;;;;4995560;28;20028;-84
2023/10/29 11:08:02;;;;;;;7.28;0.45;;;16.90;99.90;;;;;;4992130;28;20038;-78
2023/10/29 11:10:28;;;;;;;2.15;0.55;;;16.80;99.90;;;;;;4998662;28;20473;-78
2023/10/29 11:12:54;;;;;;;0.30;0.30;;;17.00;99.90;;;;;;4995428;28;20041;-79
2023/10/29 11:15:21;;;;;;;0.40;0.40;;;17.10;99.90;;;;;;4998647;28;20045;-80
2023/10/29 11:17:53;;;;;;;0.35;0.35;;;17.20;99.90;;;;;;4999194;28;20371;-79
2023/10/29 11:20:41;;;;;;;0.28;0.28;;;17.40;99.90;;;;;;4997859;28;20113;-79
2023/10/29 11:23:08;;;;;;;0.20;0.20;;;17.40;99.90;;;;;;4996936;28;20038;-78
2023/10/29 11:25:37;;;;;;;0.20;0.20;;;17.60;99.90;;;;;;5001442;28;20551;-84
2023/10/29 11:28:03;;;;;;;0.30;0.30;;;17.50;99.90;;;;;;4998969;28;20034;-84
2023/10/29 11:30:28;;;;;;;0.20;0.20;;;17.50;99.90;;;;;;4999684;28;20029;-85
2023/10/29 11:33:27;;;;;;;0.30;0.30;;;17.40;99.90;;;;;;4997085;28;20034;-84
2023/10/29 11:36:31;;;;;;;0.20;0.20;;;17.30;99.90;;;;;;4991643;28;20046;-78
2023/10/29 11:39:15;;;;;;;0.20;0.20;;;17.10;99.90;;;;;;4996328;28;20025;-79
2023/10/29 11:41:51;;;;;;;0.20;0.20;;;17.20;99.90;;;;;;4994503;28;20026;-78
2023/10/29 11:44:27;;;;;;;0.20;0.20;;;17.20;99.90;;;;;;4993396;28;20023;-79
2023/10/29 11:46:59;;;;;;;0.20;0.20;;;17.20;99.90;;;;;;5012749;28;20034;-78
2023/10/29 11:49:28;;;;;;;0.20;0.20;;;17.10;99.90;;;;;;4999458;28;20022;-78
2023/10/29 11:51:56;;;;;;;0.13;0.13;;;17.10;99.90;;;;;;4990864;28;20120;-78
2023/10/29 11:54:26;;;;;;;0.17;0.17;;;16.90;99.90;;;;;;4997908;28;20025;-78
2023/10/29 11:56:52;;;;;;;0.20;0.20;;;16.80;99.90;;;;;;4996184;28;20038;-79
2023/10/29 11:59:18;;;;;;;0.20;0.20;;;16.90;99.90;;;;;;4996250;28;20026;-78
2023/10/29 12:01:44;;;;;;;0.20;0.20;;;16.80;99.90;;;;;;4994038;28;20033;-78
2023/10/29 12:04:11;;;;;;;0.22;0.22;;;17.00;99.90;;;;;;4992766;28;20485;-77
2023/10/29 12:07:47;;;;;;;0.20;0.20;;;17.00;99.90;;;;;;4991802;28;20033;-78
2023/10/29 12:10:15;;;;;;;0.20;0.20;;;17.10;99.90;;;;;;4977794;28;20053;-83
2023/10/29 12:12:51;;;;;;;0.17;0.17;;;17.10;99.90;;;;;;4996877;28;20693;-82
2023/10/29 12:15:17;;;;;;;0.30;0.30;;;16.90;99.90;;;;;;4995645;28;20054;-83
2023/10/29 12:17:45;;;;;;;0.30;0.30;;;16.80;99.90;;;;;;4991943;28;20058;-83
2023/10/29 12:20:21;;;;;;;0.30;0.30;;;16.70;99.90;;;;;;4991572;28;20052;-83
2023/10/29 12:22:57;;;;;;;0.30;0.30;;;16.70;99.90;;;;;;4994194;28;20025;-84
2023/10/29 12:25:23;;;;;;;0.43;0.43;;;16.80;99.90;;;;;;4996446;28;20394;-85
2023/10/29 12:27:50;;;;;;;0.25;0.25;;;16.90;99.90;;;;;;4993513;28;20660;-83
2023/10/29 12:30:42;;;;;;;0.20;0.20;;;17.00;99.90;;;;;;4994146;28;20655;-80
2023/10/29 12:33:27;;;;;;;0.17;0.17;;;16.90;99.90;;;;;;4991505;28;20026;-80
2023/10/29 12:35:56;;;;;;;0.20;0.20;;;16.80;99.90;;;;;;4996157;28;20041;-79
2023/10/29 12:38:24;;;;;;;0.45;0.45;;;16.80;99.90;;;;;;4989964;28;20010;-80
2023/10/29 12:41:15;;;;;;;0.25;0.25;;;16.70;99.90;;;;;;4997821;28;20010;-88
2023/10/29 12:43:52;;;;;;;2.90;1.98;;;16.80;99.90;;;;;;4993873;28;20045;-81
2023/10/29 12:46:22;;;;;;;0.20;0.20;;;16.70;99.90;;;;;;4990023;28;20052;-80
2023/10/29 12:49:04;;;;;;;0.10;0.10;;;16.60;99.90;;;;;;4992400;28;20030;-79